sensor_id;sensor_type;location;lat;lon;timestamp;temperature;humidity
19037;DHT22;9651;49.138;8.900;2023-06-10T00:02:56;17.80;99.90
19037;DHT22;9651;49.138;8.900;2023-06-10T00:06:58;17.70;99.90
19037;DHT22;9651;49.138;8.900;2023-06-10T00:11:01;17.60;99.90
19037;DHT22;9651;49.138;8.900;2023-06-10T00:15:03;17.60;99.90
19037;DHT22;9651;49.138;8.900;2023-06-10T00:19:05;17.50;99.90
19037;DHT22;9651;49.138;8.900;2023-06-10T00:23:08;17.40;99.90
19037;DHT22;9651;49.138;8.900;2023-06-10T00:27:11;17.20;99.90
19037;DHT22;9651;49.138;8.900;2023-06-10T00:31:13;17.10;99.90
19037;DHT22;9651;49.138;8.900;2023-06-10T00:35:15;17.00;99.90
19037;DHT22;9651;49.138;8.900;2023-06-10T00:39:17;17.00;99.90
19037;DHT22;9651;49.138;8.900;2023-06-10T00:43:20;17.00;99.90
19037;DHT22;9651;49.138;8.900;2023-06-10T00:47:22;17.00;99.90
19037;DHT22;9651;49.138;8.900;2023-06-10T00:51:24;16.90;99.90
19037;DHT22;9651;49.138;8.900;2023-06-10T00:55:26;16.90;99.90
19037;DHT22;9651;49.138;8.900;2023-06-10T00:59:30;16.80;99.90
19037;DHT22;9651;49.138;8.900;2023-06-10T01:03:32;16.70;99.90
19037;DHT22;9651;49.138;8.900;2023-06-10T01:07:40;16.60;99.90
19037;DHT22;9651;49.138;8.900;2023-06-10T01:11:47;16.50;99.90
19037;DHT22;9651;49.138;8.900;2023-06-10T01:15:51;16.50;99.90
19037;DHT22;9651;49.138;8.900;2023-06-10T01:19:54;16.50;99.90
19037;DHT22;9651;49.138;8.900;2023-06-10T01:23:58;16.50;99.90
19037;DHT22;9651;49.138;8.900;2023-06-10T01:28:03;16.60;99.90
19037;DHT22;9651;49.138;8.900;2023-06-10T01:32:11;16.60;99.90
19037;DHT22;9651;49.138;8.900;2023-06-10T01:36:16;16.60;99.90
19037;DHT22;9651;49.138;8.900;2023-06-10T01:40:20;16.50;99.90
19037;DHT22;9651;49.138;8.900;2023-06-10T01:44:23;16.60;99.90
19037;DHT22;9651;49.138;8.900;2023-06-10T01:48:25;16.60;99.90
19037;DHT22;9651;49.138;8.900;2023-06-10T01:52:26;16.60;99.90
19037;DHT22;9651;49.138;8.900;2023-06-10T01:56:30;16.60;99.90
19037;DHT22;9651;49.138;8.900;2023-06-10T02:00:32;16.50;99.90
19037;DHT22;9651;49.138;8.900;2023-06-10T02:04:35;16.50;99.90
19037;DHT22;9651;49.138;8.900;2023-06-10T02:08:37;16.50;99.90
19037;DHT22;9651;49.138;8.900;2023-06-10T02:12:40;16.50;99.90
19037;DHT22;9651;49.138;8.900;2023-06-10T02:16:42;16.50;99.90
19037;DHT22;9651;49.138;8.900;2023-06-10T02:20:46;16.50;99.90
19037;DHT22;9651;49.138;8.900;2023-06-10T02:24:48;16.50;99.90
19037;DHT22;9651;49.138;8.900;2023-06-10T02:28:51;16.50;99.90
19037;DHT22;9651;49.138;8.900;2023-06-10T02:32:53;16.40;99.90
19037;DHT22;9651;49.138;8.900;2023-06-10T02:36:57;16.40;99.90
19037;DHT22;9651;49.138;8.900;2023-06-10T02:41:00;16.40;99.90
19037;DHT22;9651;49.138;8.900;2023-06-10T02:45:04;16.30;99.90
19037;DHT22;9651;49.138;8.900;2023-06-10T02:49:12;16.40;99.90
19037;DHT22;9651;49.138;8.900;2023-06-10T02:53:14;16.30;99.90
19037;DHT22;9651;49.138;8.900;2023-06-10T02:57:21;16.30;99.90
19037;DHT22;9651;49.138;8.900;2023-06-10T03:01:24;16.30;99.90
19037;DHT22;9651;49.138;8.900;2023-06-10T03:05:34;16.30;99.90
19037;DHT22;9651;49.138;8.900;2023-06-10T03:09:38;16.20;99.90
19037;DHT22;9651;49.138;8.900;2023-06-10T03:13:44;16.20;99.90
19037;DHT22;9651;49.138;8.900;2023-06-10T03:17:51;16.20;99.90
19037;DHT22;9651;49.138;8.900;2023-06-10T03:22:09;16.20;99.90
19037;DHT22;9651;49.138;8.900;2023-06-10T03:26:15;16.20;99.90
19037;DHT22;9651;49.138;8.900;2023-06-10T03:30:20;16.30;99.90
19037;DHT22;9651;49.138;8.900;2023-06-10T03:34:23;16.30;99.90
19037;DHT22;9651;49.138;8.900;2023-06-10T03:38:25;16.40;99.90
19037;DHT22;9651;49.138;8.900;2023-06-10T03:42:28;16.40;99.90
19037;DHT22;9651;49.138;8.900;2023-06-10T03:46:30;16.50;99.90
19037;DHT22;9651;49.138;8.900;2023-06-10T03:50:34;16.50;99.90
19037;DHT22;9651;49.138;8.900;2023-06-10T03:54:37;16.60;99.90
19037;DHT22;9651;49.138;8.900;2023-06-10T03:58:39;16.70;99.90
19037;DHT22;9651;49.138;8.900;2023-06-10T04:02:41;16.70;99.90
19037;DHT22;9651;49.138;8.900;2023-06-10T04:06:53;16.80;99.90
19037;DHT22;9651;49.138;8.900;2023-06-10T04:10:57;16.90;99.90
19037;DHT22;9651;49.138;8.900;2023-06-10T04:14:59;17.00;99.90
19037;DHT22;9651;49.138;8.900;2023-06-10T04:19:01;17.10;99.90
19037;DHT22;9651;49.138;8.900;2023-06-10T04:23:05;17.30;99.90
19037;DHT22;9651;49.138;8.900;2023-06-10T04:27:08;17.30;99.90
19037;DHT22;9651;49.138;8.900;2023-06-10T04:31:10;17.60;99.90
19037;DHT22;9651;49.138;8.900;2023-06-10T04:35:14;17.90;99.90
19037;DHT22;9651;49.138;8.900;2023-06-10T04:39:18;18.10;99.90
19037;DHT22;9651;49.138;8.900;2023-06-10T04:43:21;18.40;99.90
19037;DHT22;9651;49.138;8.900;2023-06-10T04:47:23;18.60;99.90
19037;DHT22;9651;49.138;8.900;2023-06-10T04:51:25;18.80;99.90
19037;DHT22;9651;49.138;8.900;2023-06-10T04:55:29;19.00;99.90
19037;DHT22;9651;49.138;8.900;2023-06-10T04:59:31;19.30;99.90
19037;DHT22;9651;49.138;8.900;2023-06-10T05:03:32;19.60;99.90
19037;DHT22;9651;49.138;8.900;2023-06-10T05:07:34;20.00;99.90
19037;DHT22;9651;49.138;8.900;2023-06-10T05:11:37;20.50;99.90
19037;DHT22;9651;49.138;8.900;2023-06-10T05:15:39;21.00;99.90
19037;DHT22;9651;49.138;8.900;2023-06-10T05:19:45;21.20;99.90
19037;DHT22;9651;49.138;8.900;2023-06-10T05:23:47;21.20;99.90
19037;DHT22;9651;49.138;8.900;2023-06-10T05:27:51;21.70;99.90
19037;DHT22;9651;49.138;8.900;2023-06-10T05:31:52;22.10;99.90
19037;DHT22;9651;49.138;8.900;2023-06-10T05:35:57;22.60;99.90
19037;DHT22;9651;49.138;8.900;2023-06-10T05:39:59;23.00;99.90
19037;DHT22;9651;49.138;8.900;2023-06-10T05:44:02;22.90;99.90
19037;DHT22;9651;49.138;8.900;2023-06-10T05:48:05;23.20;99.90
19037;DHT22;9651;49.138;8.900;2023-06-10T05:52:07;23.40;99.90
19037;DHT22;9651;49.138;8.900;2023-06-10T05:56:09;23.50;99.90
19037;DHT22;9651;49.138;8.900;2023-06-10T06:00:13;23.60;99.90
19037;DHT22;9651;49.138;8.900;2023-06-10T06:04:16;23.50;99.90
19037;DHT22;9651;49.138;8.900;2023-06-10T06:08:18;23.40;99.90
19037;DHT22;9651;49.138;8.900;2023-06-10T06:12:20;22.90;99.90
19037;DHT22;9651;49.138;8.900;2023-06-10T06:16:23;23.10;99.90
19037;DHT22;9651;49.138;8.900;2023-06-10T06:20:25;23.40;99.90
19037;DHT22;9651;49.138;8.900;2023-06-10T06:24:27;23.70;99.90
19037;DHT22;9651;49.138;8.900;2023-06-10T06:28:29;23.70;99.90
19037;DHT22;9651;49.138;8.900;2023-06-10T06:32:33;23.80;99.90
19037;DHT22;9651;49.138;8.900;2023-06-10T06:36:35;24.00;99.90
19037;DHT22;9651;49.138;8.900;2023-06-10T06:40:37;23.90;99.90
19037;DHT22;9651;49.138;8.900;2023-06-10T06:44:38;23.90;99.90
19037;DHT22;9651;49.138;8.900;2023-06-10T06:48:42;24.30;99.90
19037;DHT22;9651;49.138;8.900;2023-06-10T06:52:43;24.40;99.90
19037;DHT22;9651;49.138;8.900;2023-06-10T06:56:45;24.60;99.90
19037;DHT22;9651;49.138;8.900;2023-06-10T07:00:47;24.70;99.90
19037;DHT22;9651;49.138;8.900;2023-06-10T07:04:51;25.20;99.90
19037;DHT22;9651;49.138;8.900;2023-06-10T07:08:56;25.20;99.90
19037;DHT22;9651;49.138;8.900;2023-06-10T07:12:57;25.70;99.90
19037;DHT22;9651;49.138;8.900;2023-06-10T07:16:59;25.80;99.90
19037;DHT22;9651;49.138;8.900;2023-06-10T07:21:03;26.20;99.90
19037;DHT22;9651;49.138;8.900;2023-06-10T07:25:05;26.10;99.90
19037;DHT22;9651;49.138;8.900;2023-06-10T07:29:07;26.20;99.90
19037;DHT22;9651;49.138;8.900;2023-06-10T07:33:09;26.30;99.90
19037;DHT22;9651;49.138;8.900;2023-06-10T07:37:13;26.80;99.90
19037;DHT22;9651;49.138;8.900;2023-06-10T07:41:15;26.90;99.90
19037;DHT22;9651;49.138;8.900;2023-06-10T07:45:18;27.40;99.90
19037;DHT22;9651;49.138;8.900;2023-06-10T07:49:20;28.00;99.90
19037;DHT22;9651;49.138;8.900;2023-06-10T07:53:23;28.00;99.90
19037;DHT22;9651;49.138;8.900;2023-06-10T07:57:25;27.90;99.70
19037;DHT22;9651;49.138;8.900;2023-06-10T08:01:27;27.40;99.90
19037;DHT22;9651;49.138;8.900;2023-06-10T08:05:30;27.90;99.90
19037;DHT22;9651;49.138;8.900;2023-06-10T08:09:34;28.90;99.40
19037;DHT22;9651;49.138;8.900;2023-06-10T08:13:36;29.30;98.50
19037;DHT22;9651;49.138;8.900;2023-06-10T08:17:38;29.40;98.00
19037;DHT22;9651;49.138;8.900;2023-06-10T08:21:40;29.90;97.10
19037;DHT22;9651;49.138;8.900;2023-06-10T08:25:43;29.90;96.60
19037;DHT22;9651;49.138;8.900;2023-06-10T08:29:45;30.20;96.30
19037;DHT22;9651;49.138;8.900;2023-06-10T08:33:47;30.40;95.40
19037;DHT22;9651;49.138;8.900;2023-06-10T08:37:49;30.30;94.40
19037;DHT22;9651;49.138;8.900;2023-06-10T08:42:00;30.20;95.00
19037;DHT22;9651;49.138;8.900;2023-06-10T08:46:08;30.00;94.20
19037;DHT22;9651;49.138;8.900;2023-06-10T08:50:11;29.90;94.60
19037;DHT22;9651;49.138;8.900;2023-06-10T08:54:17;30.50;93.60
19037;DHT22;9651;49.138;8.900;2023-06-10T08:58:21;30.40;92.60
19037;DHT22;9651;49.138;8.900;2023-06-10T09:02:23;30.90;93.40
19037;DHT22;9651;49.138;8.900;2023-06-10T09:06:25;31.60;92.60
19037;DHT22;9651;49.138;8.900;2023-06-10T09:10:28;32.60;91.70
19037;DHT22;9651;49.138;8.900;2023-06-10T09:14:32;32.90;90.60
19037;DHT22;9651;49.138;8.900;2023-06-10T09:18:34;32.50;88.70
19037;DHT22;9651;49.138;8.900;2023-06-10T09:22:36;32.60;90.00
19037;DHT22;9651;49.138;8.900;2023-06-10T09:26:38;33.10;87.80
19037;DHT22;9651;49.138;8.900;2023-06-10T09:30:41;32.90;86.20
19037;DHT22;9651;49.138;8.900;2023-06-10T09:34:43;33.30;86.10
19037;DHT22;9651;49.138;8.900;2023-06-10T09:38:46;33.40;85.20
19037;DHT22;9651;49.138;8.900;2023-06-10T09:42:53;33.90;84.20
19037;DHT22;9651;49.138;8.900;2023-06-10T09:46:57;34.70;81.30
19037;DHT22;9651;49.138;8.900;2023-06-10T09:51:00;34.80;79.80
19037;DHT22;9651;49.138;8.900;2023-06-10T09:55:02;35.50;78.20
19037;DHT22;9651;49.138;8.900;2023-06-10T09:59:04;35.80;75.80
19037;DHT22;9651;49.138;8.900;2023-06-10T10:03:08;35.40;74.90
19037;DHT22;9651;49.138;8.900;2023-06-10T10:07:10;35.40;74.30
19037;DHT22;9651;49.138;8.900;2023-06-10T10:11:12;35.10;73.30
19037;DHT22;9651;49.138;8.900;2023-06-10T10:15:17;35.10;72.10
19037;DHT22;9651;49.138;8.900;2023-06-10T10:19:25;35.70;70.90
19037;DHT22;9651;49.138;8.900;2023-06-10T10:23:31;36.60;69.50
19037;DHT22;9651;49.138;8.900;2023-06-10T10:27:44;36.80;67.50
19037;DHT22;9651;49.138;8.900;2023-06-10T10:31:50;36.20;66.60
19037;DHT22;9651;49.138;8.900;2023-06-10T10:35:55;35.50;66.20
19037;DHT22;9651;49.138;8.900;2023-06-10T10:39:58;36.30;67.60
19037;DHT22;9651;49.138;8.900;2023-06-10T10:44:01;36.70;65.00
19037;DHT22;9651;49.138;8.900;2023-06-10T10:48:08;37.40;64.00
19037;DHT22;9651;49.138;8.900;2023-06-10T10:52:13;37.80;63.30
19037;DHT22;9651;49.138;8.900;2023-06-10T10:56:16;38.40;61.20
19037;DHT22;9651;49.138;8.900;2023-06-10T11:00:27;38.40;58.40
19037;DHT22;9651;49.138;8.900;2023-06-10T11:04:29;37.80;58.40
19037;DHT22;9651;49.138;8.900;2023-06-10T11:08:49;37.90;57.90
19037;DHT22;9651;49.138;8.900;2023-06-10T11:12:52;37.20;58.60
19037;DHT22;9651;49.138;8.900;2023-06-10T11:16:56;38.10;58.10
19037;DHT22;9651;49.138;8.900;2023-06-10T11:21:00;38.90;56.80
19037;DHT22;9651;49.138;8.900;2023-06-10T11:25:13;39.60;55.70
19037;DHT22;9651;49.138;8.900;2023-06-10T11:29:15;40.60;54.20
19037;DHT22;9651;49.138;8.900;2023-06-10T11:33:17;40.40;53.90
19037;DHT22;9651;49.138;8.900;2023-06-10T11:37:19;40.30;53.90
19037;DHT22;9651;49.138;8.900;2023-06-10T11:41:24;40.30;53.60
19037;DHT22;9651;49.138;8.900;2023-06-10T11:45:27;40.10;53.50
19037;DHT22;9651;49.138;8.900;2023-06-10T11:49:29;39.90;53.60
19037;DHT22;9651;49.138;8.900;2023-06-10T11:53:31;40.10;52.70
19037;DHT22;9651;49.138;8.900;2023-06-10T11:57:35;40.50;52.60
19037;DHT22;9651;49.138;8.900;2023-06-10T12:01:40;40.50;52.10
19037;DHT22;9651;49.138;8.900;2023-06-10T12:05:58;40.40;51.80
19037;DHT22;9651;49.138;8.900;2023-06-10T12:10:00;40.80;51.50
19037;DHT22;9651;49.138;8.900;2023-06-10T12:14:03;41.90;50.90
19037;DHT22;9651;49.138;8.900;2023-06-10T12:18:06;42.40;50.80
19037;DHT22;9651;49.138;8.900;2023-06-10T12:22:08;41.90;50.50
19037;DHT22;9651;49.138;8.900;2023-06-10T12:26:10;39.40;51.80
19037;DHT22;9651;49.138;8.900;2023-06-10T12:30:19;39.10;52.50
19037;DHT22;9651;49.138;8.900;2023-06-10T12:34:34;41.00;51.50
19037;DHT22;9651;49.138;8.900;2023-06-10T12:38:37;42.60;50.30
19037;DHT22;9651;49.138;8.900;2023-06-10T12:42:40;42.20;50.00
19037;DHT22;9651;49.138;8.900;2023-06-10T12:46:43;41.70;50.20
19037;DHT22;9651;49.138;8.900;2023-06-10T12:50:51;41.50;49.90
19037;DHT22;9651;49.138;8.900;2023-06-10T12:54:53;42.20;49.20
19037;DHT22;9651;49.138;8.900;2023-06-10T12:58:55;40.10;49.40
19037;DHT22;9651;49.138;8.900;2023-06-10T13:03:00;40.10;49.60
19037;DHT22;9651;49.138;8.900;2023-06-10T13:07:02;39.90;49.40
19037;DHT22;9651;49.138;8.900;2023-06-10T13:11:04;40.70;49.20
19037;DHT22;9651;49.138;8.900;2023-06-10T13:15:06;41.30;48.90
19037;DHT22;9651;49.138;8.900;2023-06-10T13:19:10;39.90;50.10
19037;DHT22;9651;49.138;8.900;2023-06-10T13:23:12;40.00;49.50
19037;DHT22;9651;49.138;8.900;2023-06-10T13:27:14;40.60;49.60
19037;DHT22;9651;49.138;8.900;2023-06-10T13:31:16;39.00;48.80
19037;DHT22;9651;49.138;8.900;2023-06-10T13:35:19;38.90;50.20
19037;DHT22;9651;49.138;8.900;2023-06-10T13:39:21;37.30;51.10
19037;DHT22;9651;49.138;8.900;2023-06-10T13:43:23;35.60;52.20
19037;DHT22;9651;49.138;8.900;2023-06-10T13:47:25;36.30;53.30
19037;DHT22;9651;49.138;8.900;2023-06-10T13:51:28;38.40;51.40
19037;DHT22;9651;49.138;8.900;2023-06-10T13:55:30;40.30;50.30
19037;DHT22;9651;49.138;8.900;2023-06-10T13:59:32;41.10;49.20
19037;DHT22;9651;49.138;8.900;2023-06-10T14:03:34;42.10;48.30
19037;DHT22;9651;49.138;8.900;2023-06-10T14:07:37;41.80;48.60
19037;DHT22;9651;49.138;8.900;2023-06-10T14:11:40;41.90;48.20
19037;DHT22;9651;49.138;8.900;2023-06-10T14:15:42;42.10;48.00
19037;DHT22;9651;49.138;8.900;2023-06-10T14:19:45;42.60;47.50
19037;DHT22;9651;49.138;8.900;2023-06-10T14:23:48;42.70;47.40
19037;DHT22;9651;49.138;8.900;2023-06-10T14:27:52;41.60;47.30
19037;DHT22;9651;49.138;8.900;2023-06-10T14:31:54;42.20;47.10
19037;DHT22;9651;49.138;8.900;2023-06-10T14:35:56;42.70;47.00
19037;DHT22;9651;49.138;8.900;2023-06-10T14:39:59;42.50;46.60
19037;DHT22;9651;49.138;8.900;2023-06-10T14:44:01;42.60;46.60
19037;DHT22;9651;49.138;8.900;2023-06-10T14:48:03;42.70;46.90
19037;DHT22;9651;49.138;8.900;2023-06-10T14:52:05;42.90;46.60
19037;DHT22;9651;49.138;8.900;2023-06-10T14:56:08;43.10;46.50
19037;DHT22;9651;49.138;8.900;2023-06-10T15:00:11;42.90;46.80
19037;DHT22;9651;49.138;8.900;2023-06-10T15:04:15;43.30;46.40
19037;DHT22;9651;49.138;8.900;2023-06-10T15:08:17;43.50;45.30
19037;DHT22;9651;49.138;8.900;2023-06-10T15:12:21;43.00;45.40
19037;DHT22;9651;49.138;8.900;2023-06-10T15:16:22;42.40;45.70
19037;DHT22;9651;49.138;8.900;2023-06-10T15:20:24;42.80;45.60
19037;DHT22;9651;49.138;8.900;2023-06-10T15:24:26;42.30;45.70
19037;DHT22;9651;49.138;8.900;2023-06-10T15:28:29;42.50;45.70
19037;DHT22;9651;49.138;8.900;2023-06-10T15:32:31;42.00;46.10
19037;DHT22;9651;49.138;8.900;2023-06-10T15:36:33;42.10;46.30
19037;DHT22;9651;49.138;8.900;2023-06-10T15:40:36;42.50;46.20
19037;DHT22;9651;49.138;8.900;2023-06-10T15:44:40;42.10;45.80
19037;DHT22;9651;49.138;8.900;2023-06-10T15:48:41;41.60;45.40
19037;DHT22;9651;49.138;8.900;2023-06-10T15:52:43;42.00;45.60
19037;DHT22;9651;49.138;8.900;2023-06-10T15:56:45;41.60;46.50
19037;DHT22;9651;49.138;8.900;2023-06-10T16:00:49;40.90;46.60
19037;DHT22;9651;49.138;8.900;2023-06-10T16:04:51;40.20;46.90
19037;DHT22;9651;49.138;8.900;2023-06-10T16:08:53;39.40;47.50
19037;DHT22;9651;49.138;8.900;2023-06-10T16:12:55;39.30;47.70
19037;DHT22;9651;49.138;8.900;2023-06-10T16:16:58;39.70;47.90
19037;DHT22;9651;49.138;8.900;2023-06-10T16:21:01;40.10;47.60
19037;DHT22;9651;49.138;8.900;2023-06-10T16:25:03;39.00;48.10
19037;DHT22;9651;49.138;8.900;2023-06-10T16:29:06;38.60;49.00
19037;DHT22;9651;49.138;8.900;2023-06-10T16:33:09;38.10;49.20
19037;DHT22;9651;49.138;8.900;2023-06-10T16:37:11;37.70;48.90
19037;DHT22;9651;49.138;8.900;2023-06-10T16:41:13;37.20;48.90
19037;DHT22;9651;49.138;8.900;2023-06-10T16:45:15;36.00;50.30
19037;DHT22;9651;49.138;8.900;2023-06-10T16:49:18;34.60;51.20
19037;DHT22;9651;49.138;8.900;2023-06-10T16:53:20;33.40;52.50
19037;DHT22;9651;49.138;8.900;2023-06-10T16:57:22;32.90;53.40
19037;DHT22;9651;49.138;8.900;2023-06-10T17:01:24;32.10;53.80
19037;DHT22;9651;49.138;8.900;2023-06-10T17:05:27;31.40;54.90
19037;DHT22;9651;49.138;8.900;2023-06-10T17:09:29;31.20;55.80
19037;DHT22;9651;49.138;8.900;2023-06-10T17:13:31;31.00;56.30
19037;DHT22;9651;49.138;8.900;2023-06-10T17:17:33;30.60;56.90
19037;DHT22;9651;49.138;8.900;2023-06-10T17:21:36;30.50;57.30
19037;DHT22;9651;49.138;8.900;2023-06-10T17:25:38;30.20;57.40
19037;DHT22;9651;49.138;8.900;2023-06-10T17:29:40;29.80;58.20
19037;DHT22;9651;49.138;8.900;2023-06-10T17:33:42;29.70;58.70
19037;DHT22;9651;49.138;8.900;2023-06-10T17:37:45;29.60;58.70
19037;DHT22;9651;49.138;8.900;2023-06-10T17:41:47;29.40;59.10
19037;DHT22;9651;49.138;8.900;2023-06-10T17:45:50;29.40;59.70
19037;DHT22;9651;49.138;8.900;2023-06-10T17:49:52;29.40;59.30
19037;DHT22;9651;49.138;8.900;2023-06-10T17:53:55;29.20;59.50
19037;DHT22;9651;49.138;8.900;2023-06-10T17:57:57;29.10;60.20
19037;DHT22;9651;49.138;8.900;2023-06-10T18:01:58;29.10;60.40
19037;DHT22;9651;49.138;8.900;2023-06-10T18:06:00;29.00;61.00
19037;DHT22;9651;49.138;8.900;2023-06-10T18:10:04;29.00;61.20
19037;DHT22;9651;49.138;8.900;2023-06-10T18:14:06;28.90;61.90
19037;DHT22;9651;49.138;8.900;2023-06-10T18:18:09;28.70;62.20
19037;DHT22;9651;49.138;8.900;2023-06-10T18:22:12;28.60;62.40
19037;DHT22;9651;49.138;8.900;2023-06-10T18:26:15;28.60;62.70
19037;DHT22;9651;49.138;8.900;2023-06-10T18:30:17;28.50;63.00
19037;DHT22;9651;49.138;8.900;2023-06-10T18:34:19;28.30;63.50
19037;DHT22;9651;49.138;8.900;2023-06-10T18:38:20;28.20;64.10
19037;DHT22;9651;49.138;8.900;2023-06-10T18:42:24;28.00;65.30
19037;DHT22;9651;49.138;8.900;2023-06-10T18:46:26;27.80;66.80
19037;DHT22;9651;49.138;8.900;2023-06-10T18:50:28;27.60;67.80
19037;DHT22;9651;49.138;8.900;2023-06-10T18:54:30;27.50;68.30
19037;DHT22;9651;49.138;8.900;2023-06-10T18:58:33;27.30;68.80
19037;DHT22;9651;49.138;8.900;2023-06-10T19:02:35;27.10;69.70
19037;DHT22;9651;49.138;8.900;2023-06-10T19:06:37;27.00;70.20
19037;DHT22;9651;49.138;8.900;2023-06-10T19:10:39;26.90;70.80
19037;DHT22;9651;49.138;8.900;2023-06-10T19:14:43;26.80;71.40
19037;DHT22;9651;49.138;8.900;2023-06-10T19:18:44;26.60;72.20
19037;DHT22;9651;49.138;8.900;2023-06-10T19:22:46;26.50;73.00
19037;DHT22;9651;49.138;8.900;2023-06-10T19:26:48;26.30;73.70
19037;DHT22;9651;49.138;8.900;2023-06-10T19:30:51;26.20;74.40
19037;DHT22;9651;49.138;8.900;2023-06-10T19:34:53;26.10;75.00
19037;DHT22;9651;49.138;8.900;2023-06-10T19:38:55;26.00;75.50
19037;DHT22;9651;49.138;8.900;2023-06-10T19:42:57;25.90;76.40
19037;DHT22;9651;49.138;8.900;2023-06-10T19:47:00;25.80;77.30
19037;DHT22;9651;49.138;8.900;2023-06-10T19:51:03;25.70;77.80
19037;DHT22;9651;49.138;8.900;2023-06-10T19:55:05;25.70;78.30
19037;DHT22;9651;49.138;8.900;2023-06-10T19:59:07;25.60;79.00
19037;DHT22;9651;49.138;8.900;2023-06-10T20:03:10;25.50;79.70
19037;DHT22;9651;49.138;8.900;2023-06-10T20:07:12;25.40;80.20
19037;DHT22;9651;49.138;8.900;2023-06-10T20:11:15;25.30;81.00
19037;DHT22;9651;49.138;8.900;2023-06-10T20:15:17;25.30;81.70
19037;DHT22;9651;49.138;8.900;2023-06-10T20:19:20;25.10;82.20
19037;DHT22;9651;49.138;8.900;2023-06-10T20:23:22;25.00;82.90
19037;DHT22;9651;49.138;8.900;2023-06-10T20:27:24;24.80;84.10
19037;DHT22;9651;49.138;8.900;2023-06-10T20:31:26;24.80;84.80
19037;DHT22;9651;49.138;8.900;2023-06-10T20:35:29;24.70;85.50
19037;DHT22;9651;49.138;8.900;2023-06-10T20:39:31;24.70;86.20
19037;DHT22;9651;49.138;8.900;2023-06-10T20:43:33;24.60;86.80
19037;DHT22;9651;49.138;8.900;2023-06-10T20:47:35;24.50;87.90
19037;DHT22;9651;49.138;8.900;2023-06-10T20:51:38;24.40;89.20
19037;DHT22;9651;49.138;8.900;2023-06-10T20:55:40;24.30;89.40
19037;DHT22;9651;49.138;8.900;2023-06-10T20:59:42;24.20;90.30
19037;DHT22;9651;49.138;8.900;2023-06-10T21:03:43;24.10;90.80
19037;DHT22;9651;49.138;8.900;2023-06-10T21:07:47;24.10;91.40
19037;DHT22;9651;49.138;8.900;2023-06-10T21:11:49;24.00;91.70
19037;DHT22;9651;49.138;8.900;2023-06-10T21:15:51;23.90;92.20
19037;DHT22;9651;49.138;8.900;2023-06-10T21:19:52;23.80;92.90
19037;DHT22;9651;49.138;8.900;2023-06-10T21:23:56;23.60;93.30
19037;DHT22;9651;49.138;8.900;2023-06-10T21:27:58;23.50;94.00
19037;DHT22;9651;49.138;8.900;2023-06-10T21:31:59;23.40;94.50
19037;DHT22;9651;49.138;8.900;2023-06-10T21:36:01;23.30;94.90
19037;DHT22;9651;49.138;8.900;2023-06-10T21:40:06;23.30;95.70
19037;DHT22;9651;49.138;8.900;2023-06-10T21:44:08;23.20;96.00
19037;DHT22;9651;49.138;8.900;2023-06-10T21:48:10;23.10;96.60
19037;DHT22;9651;49.138;8.900;2023-06-10T21:52:12;23.00;97.20
19037;DHT22;9651;49.138;8.900;2023-06-10T21:56:16;23.00;97.80
19037;DHT22;9651;49.138;8.900;2023-06-10T22:00:19;22.90;98.30
19037;DHT22;9651;49.138;8.900;2023-06-10T22:04:20;22.90;98.60
19037;DHT22;9651;49.138;8.900;2023-06-10T22:08:23;22.90;98.90
19037;DHT22;9651;49.138;8.900;2023-06-10T22:12:27;22.80;99.30
19037;DHT22;9651;49.138;8.900;2023-06-10T22:16:28;22.80;99.80
19037;DHT22;9651;49.138;8.900;2023-06-10T22:20:30;22.70;99.90
19037;DHT22;9651;49.138;8.900;2023-06-10T22:24:33;22.70;99.90
19037;DHT22;9651;49.138;8.900;2023-06-10T22:28:37;22.60;99.90
19037;DHT22;9651;49.138;8.900;2023-06-10T22:32:39;22.50;99.90
19037;DHT22;9651;49.138;8.900;2023-06-10T22:36:41;22.50;99.90
19037;DHT22;9651;49.138;8.900;2023-06-10T22:40:42;22.40;99.90
19037;DHT22;9651;49.138;8.900;2023-06-10T22:44:46;22.30;99.90
19037;DHT22;9651;49.138;8.900;2023-06-10T22:48:47;22.20;99.90
19037;DHT22;9651;49.138;8.900;2023-06-10T22:52:51;22.20;99.90
19037;DHT22;9651;49.138;8.900;2023-06-10T22:56:53;22.10;99.90
19037;DHT22;9651;49.138;8.900;2023-06-10T23:00:57;22.10;99.90
19037;DHT22;9651;49.138;8.900;2023-06-10T23:04:59;22.00;99.90
19037;DHT22;9651;49.138;8.900;2023-06-10T23:09:00;21.90;99.90
19037;DHT22;9651;49.138;8.900;2023-06-10T23:13:02;21.90;99.90
19037;DHT22;9651;49.138;8.900;2023-06-10T23:17:06;21.90;99.90
19037;DHT22;9651;49.138;8.900;2023-06-10T23:21:09;21.80;99.90
19037;DHT22;9651;49.138;8.900;2023-06-10T23:25:10;21.60;99.90
19037;DHT22;9651;49.138;8.900;2023-06-10T23:29:12;21.50;99.90
19037;DHT22;9651;49.138;8.900;2023-06-10T23:33:15;21.40;99.90
19037;DHT22;9651;49.138;8.900;2023-06-10T23:37:18;21.30;99.90
19037;DHT22;9651;49.138;8.900;2023-06-10T23:41:21;21.20;99.90
19037;DHT22;9651;49.138;8.900;2023-06-10T23:45:22;21.10;99.90
19037;DHT22;9651;49.138;8.900;2023-06-10T23:49:26;21.10;99.90
19037;DHT22;9651;49.138;8.900;2023-06-10T23:53:28;21.00;99.90
19037;DHT22;9651;49.138;8.900;2023-06-10T23:57:29;21.00;99.90
